<?xml version="1.0" encoding="UTF-8" standalone="no" ?>
<gpx xmlns="http://www.topografix.com/GPX/1/1" xmlns:xsi="http://www.w3.org/2001/XMLSchema-instance" xsi:schemaLocation="http://www.topografix.com/GPX/1/1 http://www.topografix.com/GPX/1/1/gpx.xsd" version="1.1" creator="VisuGPX - https://www.visugpx.com">
  <metadata>
    <name>Velo</name>
    <desc><![CDATA[idor:10246719_102515280_10794639_12973163_1418743_13428926_12998252_13558460_14716825_14357364_14251590]]></desc>
  </metadata>
  <trk>
    <name><![CDATA[ChapelleE_boucleHéric_40km-14251590]]></name>
    <extensions>
      <line xmlns="http://www.topografix.com/GPX/gpx_style/0/2">
        <color>880000</color>
        <width>4</width>
      </line>
    </extensions>
    <trkseg>
      <trkpt lat="47.26833" lon="-1.5456">
        <ele>29</ele>
        <time>2023-11-15T08:00:52Z</time>
      </trkpt>
      <trkpt lat="47.28547" lon="-1.55015">
        <ele>27</ele>
        <time>2023-11-15T08:06:02Z</time>
      </trkpt>
      <trkpt lat="47.30006" lon="-1.54791">
        <ele>26</ele>
        <time>2023-11-15T08:10:23Z</time>
      </trkpt>
      <trkpt lat="47.30818" lon="-1.54278">
        <ele>19</ele>
        <time>2023-11-15T08:13:00Z</time>
      </trkpt>
      <trkpt lat="47.31611" lon="-1.54358">
        <ele>11</ele>
        <time>2023-11-15T08:15:21Z</time>
      </trkpt>
      <trkpt lat="47.32365" lon="-1.55368">
        <ele>29</ele>
        <time>2023-11-15T08:18:23Z</time>
      </trkpt>
      <trkpt lat="47.33348" lon="-1.5705">
        <ele>33</ele>
        <time>2023-11-15T08:22:51Z</time>
      </trkpt>
      <trkpt lat="47.33989" lon="-1.57259">
        <ele>33</ele>
        <time>2023-11-15T08:24:47Z</time>
      </trkpt>
      <trkpt lat="47.34556" lon="-1.57115">
        <ele>28</ele>
        <time>2023-11-15T08:26:30Z</time>
      </trkpt>
      <trkpt lat="47.34918" lon="-1.57295">
        <ele>36</ele>
        <time>2023-11-15T08:27:38Z</time>
      </trkpt>
      <trkpt lat="47.35021" lon="-1.57129">
        <ele>30</ele>
        <time>2023-11-15T08:28:05Z</time>
      </trkpt>
      <trkpt lat="47.35211" lon="-1.57454">
        <ele>13</ele>
        <time>2023-11-15T08:28:57Z</time>
      </trkpt>
      <trkpt lat="47.35578" lon="-1.57418">
        <ele>23</ele>
        <time>2023-11-15T08:30:02Z</time>
      </trkpt>
      <trkpt lat="47.3572" lon="-1.57555">
        <ele>28</ele>
        <time>2023-11-15T08:30:32Z</time>
      </trkpt>
      <trkpt lat="47.3616" lon="-1.57541">
        <ele>30</ele>
        <time>2023-11-15T08:31:50Z</time>
      </trkpt>
      <trkpt lat="47.36277" lon="-1.57988">
        <ele>31</ele>
        <time>2023-11-15T08:32:48Z</time>
      </trkpt>
      <trkpt lat="47.36971" lon="-1.58527">
        <ele>38</ele>
        <time>2023-11-15T08:35:08Z</time>
      </trkpt>
      <trkpt lat="47.3743" lon="-1.58715">
        <ele>31</ele>
        <time>2023-11-15T08:36:33Z</time>
      </trkpt>
      <trkpt lat="47.3756" lon="-1.58978">
        <ele>32</ele>
        <time>2023-11-15T08:37:12Z</time>
      </trkpt>
      <trkpt lat="47.37361" lon="-1.60499">
        <ele>38</ele>
        <time>2023-11-15T08:40:18Z</time>
      </trkpt>
      <trkpt lat="47.39043" lon="-1.60781">
        <ele>36</ele>
        <time>2023-11-15T08:45:20Z</time>
      </trkpt>
      <trkpt lat="47.3919" lon="-1.62817">
        <ele>33</ele>
        <time>2023-11-15T08:49:26Z</time>
      </trkpt>
      <trkpt lat="47.39957" lon="-1.64433">
        <ele>40</ele>
        <time>2023-11-15T08:53:24Z</time>
      </trkpt>
      <trkpt lat="47.37553" lon="-1.64087">
        <ele>45</ele>
        <time>2023-11-15T09:00:34Z</time>
      </trkpt>
      <trkpt lat="47.36936" lon="-1.63701">
        <ele>47</ele>
        <time>2023-11-15T09:02:33Z</time>
      </trkpt>
      <trkpt lat="47.36712" lon="-1.63725">
        <ele>45</ele>
        <time>2023-11-15T09:03:13Z</time>
      </trkpt>
      <trkpt lat="47.36438" lon="-1.63553">
        <ele>34</ele>
        <time>2023-11-15T09:04:06Z</time>
      </trkpt>
      <trkpt lat="47.36162" lon="-1.63338">
        <ele>48</ele>
        <time>2023-11-15T09:05:01Z</time>
      </trkpt>
      <trkpt lat="47.35912" lon="-1.63428">
        <ele>52</ele>
        <time>2023-11-15T09:05:47Z</time>
      </trkpt>
      <trkpt lat="47.35597" lon="-1.63659">
        <ele>54</ele>
        <time>2023-11-15T09:06:50Z</time>
      </trkpt>
      <trkpt lat="47.35228" lon="-1.63554">
        <ele>54</ele>
        <time>2023-11-15T09:07:57Z</time>
      </trkpt>
      <trkpt lat="47.35123" lon="-1.63446">
        <ele>49</ele>
        <time>2023-11-15T09:08:19Z</time>
      </trkpt>
      <trkpt lat="47.34763" lon="-1.63543">
        <ele>46</ele>
        <time>2023-11-15T09:09:25Z</time>
      </trkpt>
      <trkpt lat="47.34286" lon="-1.63183">
        <ele>60</ele>
        <time>2023-11-15T09:11:00Z</time>
      </trkpt>
      <trkpt lat="47.33858" lon="-1.63598">
        <ele>63</ele>
        <time>2023-11-15T09:12:31Z</time>
      </trkpt>
      <trkpt lat="47.3333" lon="-1.62804">
        <ele>59</ele>
        <time>2023-11-15T09:14:45Z</time>
      </trkpt>
      <trkpt lat="47.33227" lon="-1.62732">
        <ele>58</ele>
        <time>2023-11-15T09:15:05Z</time>
      </trkpt>
      <trkpt lat="47.33117" lon="-1.62793">
        <ele>54</ele>
        <time>2023-11-15T09:15:26Z</time>
      </trkpt>
      <trkpt lat="47.32787" lon="-1.61616">
        <ele>55</ele>
        <time>2023-11-15T09:18:00Z</time>
      </trkpt>
      <trkpt lat="47.3279" lon="-1.61373">
        <ele>50</ele>
        <time>2023-11-15T09:18:29Z</time>
      </trkpt>
      <trkpt lat="47.3301" lon="-1.60774">
        <ele>49</ele>
        <time>2023-11-15T09:19:51Z</time>
      </trkpt>
      <trkpt lat="47.32893" lon="-1.59251">
        <ele>47</ele>
        <time>2023-11-15T09:22:56Z</time>
      </trkpt>
      <trkpt lat="47.32555" lon="-1.58537">
        <ele>49</ele>
        <time>2023-11-15T09:24:41Z</time>
      </trkpt>
      <trkpt lat="47.30921" lon="-1.56696">
        <ele>35</ele>
        <time>2023-11-15T09:30:47Z</time>
      </trkpt>
      <trkpt lat="47.30852" lon="-1.56608">
        <ele>36</ele>
        <time>2023-11-15T09:31:03Z</time>
      </trkpt>
      <trkpt lat="47.30253" lon="-1.555">
        <ele>25</ele>
        <time>2023-11-15T09:33:54Z</time>
      </trkpt>
      <trkpt lat="47.29751" lon="-1.55485">
        <ele>32</ele>
        <time>2023-11-15T09:35:24Z</time>
      </trkpt>
      <trkpt lat="47.29628" lon="-1.5555">
        <ele>36</ele>
        <time>2023-11-15T09:35:47Z</time>
      </trkpt>
      <trkpt lat="47.29562" lon="-1.5551">
        <ele>38</ele>
        <time>2023-11-15T09:36:00Z</time>
      </trkpt>
      <trkpt lat="47.29349" lon="-1.54919">
        <ele>31</ele>
        <time>2023-11-15T09:37:20Z</time>
      </trkpt>
      <trkpt lat="47.27555" lon="-1.54807">
        <ele>37</ele>
        <time>2023-11-15T09:42:40Z</time>
      </trkpt>
      <trkpt lat="47.26887" lon="-1.54641">
        <ele>31</ele>
        <time>2023-11-15T09:44:40Z</time>
      </trkpt>
    </trkseg>
  </trk>
</gpx>